sensor_id;sensor_type;location;lat;lon;timestamp;temperature;humidity
50013;DHT22;35901;48.694;9.476;2022-12-07T00:01:39;2.30;99.90
50013;DHT22;35901;48.694;9.476;2022-12-07T00:04:07;2.30;99.90
50013;DHT22;35901;48.694;9.476;2022-12-07T00:06:38;2.30;99.90
50013;DHT22;35901;48.694;9.476;2022-12-07T00:09:10;2.30;99.90
50013;DHT22;35901;48.694;9.476;2022-12-07T00:11:37;2.30;99.90
50013;DHT22;35901;48.694;9.476;2022-12-07T00:14:06;2.30;99.90
50013;DHT22;35901;48.694;9.476;2022-12-07T00:16:33;2.30;99.90
50013;DHT22;35901;48.694;9.476;2022-12-07T00:18:59;2.30;99.90
50013;DHT22;35901;48.694;9.476;2022-12-07T00:21:28;2.30;99.90
50013;DHT22;35901;48.694;9.476;2022-12-07T00:23:54;2.30;99.90
50013;DHT22;35901;48.694;9.476;2022-12-07T00:26:26;2.30;99.90
50013;DHT22;35901;48.694;9.476;2022-12-07T00:28:55;2.30;99.90
50013;DHT22;35901;48.694;9.476;2022-12-07T00:31:23;2.30;99.90
50013;DHT22;35901;48.694;9.476;2022-12-07T00:33:49;2.40;99.90
50013;DHT22;35901;48.694;9.476;2022-12-07T00:36:18;2.40;99.90
50013;DHT22;35901;48.694;9.476;2022-12-07T00:38:44;2.40;99.90
50013;DHT22;35901;48.694;9.476;2022-12-07T00:41:21;2.40;99.90
50013;DHT22;35901;48.694;9.476;2022-12-07T00:43:48;2.50;99.90
50013;DHT22;35901;48.694;9.476;2022-12-07T00:46:14;2.50;99.90
50013;DHT22;35901;48.694;9.476;2022-12-07T00:48:41;2.50;99.90
50013;DHT22;35901;48.694;9.476;2022-12-07T00:51:07;2.50;99.90
50013;DHT22;35901;48.694;9.476;2022-12-07T00:53:37;2.50;99.90
50013;DHT22;35901;48.694;9.476;2022-12-07T00:56:12;2.50;99.90
50013;DHT22;35901;48.694;9.476;2022-12-07T00:58:38;2.50;99.90
50013;DHT22;35901;48.694;9.476;2022-12-07T01:01:05;2.50;99.90
50013;DHT22;35901;48.694;9.476;2022-12-07T01:03:31;2.50;99.90
50013;DHT22;35901;48.694;9.476;2022-12-07T01:05:57;2.50;99.90
50013;DHT22;35901;48.694;9.476;2022-12-07T01:08:24;2.50;99.90
50013;DHT22;35901;48.694;9.476;2022-12-07T01:11:02;2.60;99.90
50013;DHT22;35901;48.694;9.476;2022-12-07T01:13:28;2.60;99.90
50013;DHT22;35901;48.694;9.476;2022-12-07T01:15:57;2.60;99.90
50013;DHT22;35901;48.694;9.476;2022-12-07T01:18:26;2.60;99.90
50013;DHT22;35901;48.694;9.476;2022-12-07T01:21:13;2.60;99.90
50013;DHT22;35901;48.694;9.476;2022-12-07T01:23:39;2.60;99.90
50013;DHT22;35901;48.694;9.476;2022-12-07T01:26:09;2.60;99.90
50013;DHT22;35901;48.694;9.476;2022-12-07T01:28:35;2.60;99.90
50013;DHT22;35901;48.694;9.476;2022-12-07T01:31:07;2.60;99.90
50013;DHT22;35901;48.694;9.476;2022-12-07T01:33:35;2.60;99.90
50013;DHT22;35901;48.694;9.476;2022-12-07T01:38:52;2.60;99.90
50013;DHT22;35901;48.694;9.476;2022-12-07T01:41:20;2.60;99.90
50013;DHT22;35901;48.694;9.476;2022-12-07T01:46:33;2.60;99.90
50013;DHT22;35901;48.694;9.476;2022-12-07T01:48:59;2.60;99.90
50013;DHT22;35901;48.694;9.476;2022-12-07T01:51:26;2.60;99.90
50013;DHT22;35901;48.694;9.476;2022-12-07T01:53:53;2.60;99.90
50013;DHT22;35901;48.694;9.476;2022-12-07T01:56:20;2.60;99.90
50013;DHT22;35901;48.694;9.476;2022-12-07T01:58:48;2.50;99.90
50013;DHT22;35901;48.694;9.476;2022-12-07T02:01:14;2.50;99.90
50013;DHT22;35901;48.694;9.476;2022-12-07T02:03:42;2.50;99.90
50013;DHT22;35901;48.694;9.476;2022-12-07T02:06:10;2.50;99.90
50013;DHT22;35901;48.694;9.476;2022-12-07T02:08:37;2.50;99.90
50013;DHT22;35901;48.694;9.476;2022-12-07T02:11:04;2.50;99.90
50013;DHT22;35901;48.694;9.476;2022-12-07T02:13:33;2.40;99.90
50013;DHT22;35901;48.694;9.476;2022-12-07T02:25:08;2.30;99.90
50013;DHT22;35901;48.694;9.476;2022-12-07T02:30:29;2.20;99.90
50013;DHT22;35901;48.694;9.476;2022-12-07T02:33:11;2.20;99.90
50013;DHT22;35901;48.694;9.476;2022-12-07T02:35:54;2.20;99.90
50013;DHT22;35901;48.694;9.476;2022-12-07T02:38:29;2.20;99.90
50013;DHT22;35901;48.694;9.476;2022-12-07T02:41:02;2.10;99.90
50013;DHT22;35901;48.694;9.476;2022-12-07T02:43:43;2.10;99.90
50013;DHT22;35901;48.694;9.476;2022-12-07T02:46:14;2.10;99.90
50013;DHT22;35901;48.694;9.476;2022-12-07T02:48:41;2.00;99.90
50013;DHT22;35901;48.694;9.476;2022-12-07T02:51:08;2.00;99.90
50013;DHT22;35901;48.694;9.476;2022-12-07T02:53:37;1.90;99.90
50013;DHT22;35901;48.694;9.476;2022-12-07T03:01:50;1.90;99.90
50013;DHT22;35901;48.694;9.476;2022-12-07T03:07:24;1.90;99.90
50013;DHT22;35901;48.694;9.476;2022-12-07T03:10:02;1.90;99.90
50013;DHT22;35901;48.694;9.476;2022-12-07T03:12:42;1.90;99.90
50013;DHT22;35901;48.694;9.476;2022-12-07T03:15:17;1.90;99.90
50013;DHT22;35901;48.694;9.476;2022-12-07T03:17:46;1.90;99.90
50013;DHT22;35901;48.694;9.476;2022-12-07T03:20:17;1.90;99.90
50013;DHT22;35901;48.694;9.476;2022-12-07T03:22:47;1.90;99.90
50013;DHT22;35901;48.694;9.476;2022-12-07T03:25:15;1.90;99.90
50013;DHT22;35901;48.694;9.476;2022-12-07T03:27:58;1.80;99.90
50013;DHT22;35901;48.694;9.476;2022-12-07T03:30:37;1.90;99.90
50013;DHT22;35901;48.694;9.476;2022-12-07T03:33:22;1.90;99.90
50013;DHT22;35901;48.694;9.476;2022-12-07T03:36:00;1.90;99.90
50013;DHT22;35901;48.694;9.476;2022-12-07T03:38:45;1.90;99.90
50013;DHT22;35901;48.694;9.476;2022-12-07T03:41:24;1.90;99.90
50013;DHT22;35901;48.694;9.476;2022-12-07T03:43:50;1.90;99.90
50013;DHT22;35901;48.694;9.476;2022-12-07T03:48:53;1.80;99.90
50013;DHT22;35901;48.694;9.476;2022-12-07T03:51:25;1.80;99.90
50013;DHT22;35901;48.694;9.476;2022-12-07T03:53:59;1.80;99.90
50013;DHT22;35901;48.694;9.476;2022-12-07T03:56:26;1.70;99.90
50013;DHT22;35901;48.694;9.476;2022-12-07T03:58:54;1.70;99.90
50013;DHT22;35901;48.694;9.476;2022-12-07T04:01:20;1.70;99.90
50013;DHT22;35901;48.694;9.476;2022-12-07T04:03:45;1.60;99.90
50013;DHT22;35901;48.694;9.476;2022-12-07T04:06:11;1.60;99.90
50013;DHT22;35901;48.694;9.476;2022-12-07T04:08:37;1.60;99.90
50013;DHT22;35901;48.694;9.476;2022-12-07T04:11:03;1.60;99.90
50013;DHT22;35901;48.694;9.476;2022-12-07T04:13:28;1.60;99.90
50013;DHT22;35901;48.694;9.476;2022-12-07T04:15:54;1.60;99.90
50013;DHT22;35901;48.694;9.476;2022-12-07T04:18:20;1.60;99.90
50013;DHT22;35901;48.694;9.476;2022-12-07T04:20:46;1.50;99.90
50013;DHT22;35901;48.694;9.476;2022-12-07T04:23:11;1.50;99.90
50013;DHT22;35901;48.694;9.476;2022-12-07T04:25:37;1.50;99.90
50013;DHT22;35901;48.694;9.476;2022-12-07T04:28:03;1.50;99.90
50013;DHT22;35901;48.694;9.476;2022-12-07T04:30:29;1.50;99.90
50013;DHT22;35901;48.694;9.476;2022-12-07T04:32:54;1.50;99.90
50013;DHT22;35901;48.694;9.476;2022-12-07T04:35:20;1.40;99.90
50013;DHT22;35901;48.694;9.476;2022-12-07T04:37:45;1.40;99.90
50013;DHT22;35901;48.694;9.476;2022-12-07T04:40:11;1.30;99.90
50013;DHT22;35901;48.694;9.476;2022-12-07T04:42:39;1.30;99.90
50013;DHT22;35901;48.694;9.476;2022-12-07T04:45:05;1.30;99.90
50013;DHT22;35901;48.694;9.476;2022-12-07T04:47:31;1.20;99.90
50013;DHT22;35901;48.694;9.476;2022-12-07T04:49:57;1.10;99.90
50013;DHT22;35901;48.694;9.476;2022-12-07T04:52:23;1.10;99.90
50013;DHT22;35901;48.694;9.476;2022-12-07T04:54:48;1.00;99.90
50013;DHT22;35901;48.694;9.476;2022-12-07T04:57:14;0.90;99.90
50013;DHT22;35901;48.694;9.476;2022-12-07T04:59:40;0.80;99.90
50013;DHT22;35901;48.694;9.476;2022-12-07T05:02:05;0.70;99.90
50013;DHT22;35901;48.694;9.476;2022-12-07T05:04:31;0.60;99.90
50013;DHT22;35901;48.694;9.476;2022-12-07T05:06:56;0.40;99.90
50013;DHT22;35901;48.694;9.476;2022-12-07T05:09:25;0.30;99.90
50013;DHT22;35901;48.694;9.476;2022-12-07T05:11:50;0.10;99.90
50013;DHT22;35901;48.694;9.476;2022-12-07T05:14:20;0.00;99.90
50013;DHT22;35901;48.694;9.476;2022-12-07T05:16:49;0.00;99.90
50013;DHT22;35901;48.694;9.476;2022-12-07T05:19:16;0.00;99.90
50013;DHT22;35901;48.694;9.476;2022-12-07T05:21:42;-0.10;99.90
50013;DHT22;35901;48.694;9.476;2022-12-07T05:24:10;-0.10;99.90
50013;DHT22;35901;48.694;9.476;2022-12-07T05:26:36;0.00;99.90
50013;DHT22;35901;48.694;9.476;2022-12-07T05:29:03;0.00;99.90
50013;DHT22;35901;48.694;9.476;2022-12-07T05:31:29;0.10;99.90
50013;DHT22;35901;48.694;9.476;2022-12-07T05:33:54;0.20;99.90
50013;DHT22;35901;48.694;9.476;2022-12-07T05:36:20;0.30;99.90
50013;DHT22;35901;48.694;9.476;2022-12-07T05:38:46;0.40;99.90
50013;DHT22;35901;48.694;9.476;2022-12-07T05:41:17;0.50;99.90
50013;DHT22;35901;48.694;9.476;2022-12-07T05:44:03;0.50;99.90
50013;DHT22;35901;48.694;9.476;2022-12-07T05:46:29;0.60;99.90
50013;DHT22;35901;48.694;9.476;2022-12-07T05:48:54;0.60;99.90
50013;DHT22;35901;48.694;9.476;2022-12-07T05:51:20;0.60;99.90
50013;DHT22;35901;48.694;9.476;2022-12-07T05:53:46;0.70;99.90
50013;DHT22;35901;48.694;9.476;2022-12-07T05:56:12;0.80;99.90
50013;DHT22;35901;48.694;9.476;2022-12-07T05:58:37;0.80;99.90
50013;DHT22;35901;48.694;9.476;2022-12-07T06:01:22;0.90;99.90
50013;DHT22;35901;48.694;9.476;2022-12-07T06:03:47;0.90;99.90
50013;DHT22;35901;48.694;9.476;2022-12-07T06:06:13;0.90;99.90
50013;DHT22;35901;48.694;9.476;2022-12-07T06:08:39;0.90;99.90
50013;DHT22;35901;48.694;9.476;2022-12-07T06:11:04;0.80;99.90
50013;DHT22;35901;48.694;9.476;2022-12-07T06:13:48;0.80;99.90
50013;DHT22;35901;48.694;9.476;2022-12-07T06:16:14;0.80;99.90
50013;DHT22;35901;48.694;9.476;2022-12-07T06:18:40;0.90;99.90
50013;DHT22;35901;48.694;9.476;2022-12-07T06:21:05;1.00;99.90
50013;DHT22;35901;48.694;9.476;2022-12-07T06:23:31;1.00;99.90
50013;DHT22;35901;48.694;9.476;2022-12-07T06:25:56;1.00;99.90
50013;DHT22;35901;48.694;9.476;2022-12-07T06:28:22;1.00;99.90
50013;DHT22;35901;48.694;9.476;2022-12-07T06:30:57;1.00;99.90
50013;DHT22;35901;48.694;9.476;2022-12-07T06:33:23;0.90;99.90
50013;DHT22;35901;48.694;9.476;2022-12-07T06:35:48;0.80;99.90
50013;DHT22;35901;48.694;9.476;2022-12-07T06:38:14;0.70;99.90
50013;DHT22;35901;48.694;9.476;2022-12-07T06:40:40;0.70;99.90
50013;DHT22;35901;48.694;9.476;2022-12-07T06:43:05;0.70;99.90
50013;DHT22;35901;48.694;9.476;2022-12-07T06:45:31;0.60;99.90
50013;DHT22;35901;48.694;9.476;2022-12-07T06:47:56;0.60;99.90
50013;DHT22;35901;48.694;9.476;2022-12-07T06:50:22;0.50;99.90
50013;DHT22;35901;48.694;9.476;2022-12-07T06:52:48;0.50;99.90
50013;DHT22;35901;48.694;9.476;2022-12-07T06:55:13;0.50;99.90
50013;DHT22;35901;48.694;9.476;2022-12-07T06:57:39;0.50;99.90
50013;DHT22;35901;48.694;9.476;2022-12-07T07:00:05;0.50;99.90
50013;DHT22;35901;48.694;9.476;2022-12-07T07:02:31;0.50;99.90
50013;DHT22;35901;48.694;9.476;2022-12-07T07:04:57;0.50;99.90
50013;DHT22;35901;48.694;9.476;2022-12-07T07:07:22;0.50;99.90
50013;DHT22;35901;48.694;9.476;2022-12-07T07:09:48;0.50;99.90
50013;DHT22;35901;48.694;9.476;2022-12-07T07:12:14;0.50;99.90
50013;DHT22;35901;48.694;9.476;2022-12-07T07:14:39;0.50;99.90
50013;DHT22;35901;48.694;9.476;2022-12-07T07:17:05;0.60;99.90
50013;DHT22;35901;48.694;9.476;2022-12-07T07:19:31;0.60;99.90
50013;DHT22;35901;48.694;9.476;2022-12-07T07:21:56;0.70;99.90
50013;DHT22;35901;48.694;9.476;2022-12-07T07:24:22;0.60;99.90
50013;DHT22;35901;48.694;9.476;2022-12-07T07:26:48;0.70;99.90
50013;DHT22;35901;48.694;9.476;2022-12-07T07:29:13;0.70;99.90
50013;DHT22;35901;48.694;9.476;2022-12-07T07:31:39;0.60;99.90
50013;DHT22;35901;48.694;9.476;2022-12-07T07:34:05;0.70;99.90
50013;DHT22;35901;48.694;9.476;2022-12-07T07:36:30;0.70;99.90
50013;DHT22;35901;48.694;9.476;2022-12-07T07:38:56;0.80;99.90
50013;DHT22;35901;48.694;9.476;2022-12-07T07:41:22;0.90;99.90
50013;DHT22;35901;48.694;9.476;2022-12-07T07:43:47;0.90;99.90
50013;DHT22;35901;48.694;9.476;2022-12-07T07:46:15;0.90;99.90
50013;DHT22;35901;48.694;9.476;2022-12-07T07:48:41;0.90;99.90
50013;DHT22;35901;48.694;9.476;2022-12-07T07:51:07;1.00;99.90
50013;DHT22;35901;48.694;9.476;2022-12-07T07:53:33;1.00;99.90
50013;DHT22;35901;48.694;9.476;2022-12-07T07:55:59;1.10;99.90
50013;DHT22;35901;48.694;9.476;2022-12-07T07:58:25;1.20;99.90
50013;DHT22;35901;48.694;9.476;2022-12-07T08:00:51;1.30;99.90
50013;DHT22;35901;48.694;9.476;2022-12-07T08:03:17;1.30;99.90
50013;DHT22;35901;48.694;9.476;2022-12-07T08:05:43;1.40;99.90
50013;DHT22;35901;48.694;9.476;2022-12-07T08:08:08;1.50;99.90
50013;DHT22;35901;48.694;9.476;2022-12-07T08:10:34;1.50;99.90
50013;DHT22;35901;48.694;9.476;2022-12-07T08:13:00;1.60;99.90
50013;DHT22;35901;48.694;9.476;2022-12-07T08:15:46;1.60;99.90
50013;DHT22;35901;48.694;9.476;2022-12-07T08:18:12;1.60;99.90
50013;DHT22;35901;48.694;9.476;2022-12-07T08:20:39;1.60;99.90
50013;DHT22;35901;48.694;9.476;2022-12-07T08:23:06;1.70;99.90
50013;DHT22;35901;48.694;9.476;2022-12-07T08:25:32;1.80;99.90
50013;DHT22;35901;48.694;9.476;2022-12-07T08:27:58;1.90;99.90
50013;DHT22;35901;48.694;9.476;2022-12-07T08:30:26;1.90;99.90
50013;DHT22;35901;48.694;9.476;2022-12-07T08:32:52;1.90;99.90
50013;DHT22;35901;48.694;9.476;2022-12-07T08:35:19;1.90;99.90
50013;DHT22;35901;48.694;9.476;2022-12-07T08:37:44;2.00;99.90
50013;DHT22;35901;48.694;9.476;2022-12-07T08:40:11;2.10;99.90
50013;DHT22;35901;48.694;9.476;2022-12-07T08:42:47;2.10;99.90
50013;DHT22;35901;48.694;9.476;2022-12-07T08:45:15;2.20;99.90
50013;DHT22;35901;48.694;9.476;2022-12-07T08:47:53;2.30;99.90
50013;DHT22;35901;48.694;9.476;2022-12-07T08:50:19;2.40;99.90
50013;DHT22;35901;48.694;9.476;2022-12-07T08:52:49;2.50;99.90
50013;DHT22;35901;48.694;9.476;2022-12-07T08:55:16;2.50;99.90
50013;DHT22;35901;48.694;9.476;2022-12-07T08:57:42;2.60;99.90
50013;DHT22;35901;48.694;9.476;2022-12-07T09:00:08;2.70;99.90
50013;DHT22;35901;48.694;9.476;2022-12-07T09:02:35;2.70;99.90
50013;DHT22;35901;48.694;9.476;2022-12-07T09:05:00;2.70;99.90
50013;DHT22;35901;48.694;9.476;2022-12-07T09:07:26;2.80;99.90
50013;DHT22;35901;48.694;9.476;2022-12-07T09:09:52;2.80;99.90
50013;DHT22;35901;48.694;9.476;2022-12-07T09:12:18;2.80;99.90
50013;DHT22;35901;48.694;9.476;2022-12-07T09:14:44;2.80;99.90
50013;DHT22;35901;48.694;9.476;2022-12-07T09:17:12;2.90;99.90
50013;DHT22;35901;48.694;9.476;2022-12-07T09:19:38;2.90;99.90
50013;DHT22;35901;48.694;9.476;2022-12-07T09:22:04;3.00;99.90
50013;DHT22;35901;48.694;9.476;2022-12-07T09:24:31;3.10;99.90
50013;DHT22;35901;48.694;9.476;2022-12-07T09:26:57;3.10;99.90
50013;DHT22;35901;48.694;9.476;2022-12-07T09:29:23;3.20;99.90
50013;DHT22;35901;48.694;9.476;2022-12-07T09:31:49;3.20;99.90
50013;DHT22;35901;48.694;9.476;2022-12-07T09:34:15;3.30;99.90
50013;DHT22;35901;48.694;9.476;2022-12-07T09:36:40;3.30;99.90
50013;DHT22;35901;48.694;9.476;2022-12-07T09:39:07;3.40;99.90
50013;DHT22;35901;48.694;9.476;2022-12-07T09:41:40;3.40;99.90
50013;DHT22;35901;48.694;9.476;2022-12-07T09:44:12;3.40;99.90
50013;DHT22;35901;48.694;9.476;2022-12-07T09:46:40;3.40;99.90
50013;DHT22;35901;48.694;9.476;2022-12-07T09:49:18;3.50;99.90
50013;DHT22;35901;48.694;9.476;2022-12-07T09:51:44;3.60;99.90
50013;DHT22;35901;48.694;9.476;2022-12-07T09:54:13;3.60;99.90
50013;DHT22;35901;48.694;9.476;2022-12-07T09:56:40;3.60;99.90
50013;DHT22;35901;48.694;9.476;2022-12-07T09:59:06;3.60;99.90
50013;DHT22;35901;48.694;9.476;2022-12-07T10:01:38;3.60;99.90
50013;DHT22;35901;48.694;9.476;2022-12-07T10:06:36;3.60;99.90
50013;DHT22;35901;48.694;9.476;2022-12-07T10:09:08;3.60;99.90
50013;DHT22;35901;48.694;9.476;2022-12-07T10:11:34;3.60;99.90
50013;DHT22;35901;48.694;9.476;2022-12-07T10:14:11;3.60;99.90
50013;DHT22;35901;48.694;9.476;2022-12-07T10:16:41;3.60;99.90
50013;DHT22;35901;48.694;9.476;2022-12-07T10:19:23;3.70;99.90
50013;DHT22;35901;48.694;9.476;2022-12-07T10:24:38;3.80;99.90
50013;DHT22;35901;48.694;9.476;2022-12-07T10:27:05;3.90;99.90
50013;DHT22;35901;48.694;9.476;2022-12-07T10:29:36;3.90;99.90
50013;DHT22;35901;48.694;9.476;2022-12-07T10:32:06;4.00;99.90
50013;DHT22;35901;48.694;9.476;2022-12-07T10:34:34;4.00;99.90
50013;DHT22;35901;48.694;9.476;2022-12-07T10:40:00;4.00;99.90
50013;DHT22;35901;48.694;9.476;2022-12-07T10:42:30;4.10;99.90
50013;DHT22;35901;48.694;9.476;2022-12-07T10:48:14;4.20;99.90
50013;DHT22;35901;48.694;9.476;2022-12-07T10:53:44;4.20;99.90
50013;DHT22;35901;48.694;9.476;2022-12-07T11:04:35;4.40;99.90
50013;DHT22;35901;48.694;9.476;2022-12-07T11:08:05;4.40;99.90
50013;DHT22;35901;48.694;9.476;2022-12-07T11:10:05;4.40;99.90
50013;DHT22;35901;48.694;9.476;2022-12-07T11:18:43;4.30;99.90
50013;DHT22;35901;48.694;9.476;2022-12-07T11:21:24;4.30;99.90
50013;DHT22;35901;48.694;9.476;2022-12-07T11:29:28;4.30;99.90
50013;DHT22;35901;48.694;9.476;2022-12-07T11:37:37;4.30;99.90
50013;DHT22;35901;48.694;9.476;2022-12-07T11:40:30;4.30;99.90
50013;DHT22;35901;48.694;9.476;2022-12-07T11:45:42;4.30;99.90
50013;DHT22;35901;48.694;9.476;2022-12-07T11:50:43;4.40;99.90
50013;DHT22;35901;48.694;9.476;2022-12-07T11:56:14;4.40;99.90
50013;DHT22;35901;48.694;9.476;2022-12-07T11:58:59;4.40;99.90
50013;DHT22;35901;48.694;9.476;2022-12-07T12:06:43;4.40;99.90
50013;DHT22;35901;48.694;9.476;2022-12-07T12:11:56;4.40;99.90
50013;DHT22;35901;48.694;9.476;2022-12-07T12:19:40;4.50;99.90
50013;DHT22;35901;48.694;9.476;2022-12-07T12:22:17;4.50;99.90
50013;DHT22;35901;48.694;9.476;2022-12-07T12:24:46;4.50;99.90
50013;DHT22;35901;48.694;9.476;2022-12-07T12:27:29;4.50;99.90
50013;DHT22;35901;48.694;9.476;2022-12-07T12:29:59;4.50;99.90
50013;DHT22;35901;48.694;9.476;2022-12-07T12:32:40;4.50;99.90
50013;DHT22;35901;48.694;9.476;2022-12-07T12:37:52;4.50;99.90
50013;DHT22;35901;48.694;9.476;2022-12-07T12:42:49;4.50;99.90
50013;DHT22;35901;48.694;9.476;2022-12-07T12:45:29;4.60;99.90
50013;DHT22;35901;48.694;9.476;2022-12-07T12:48:28;4.50;99.90
50013;DHT22;35901;48.694;9.476;2022-12-07T12:54:15;4.50;99.90
50013;DHT22;35901;48.694;9.476;2022-12-07T13:01:49;4.50;99.90
50013;DHT22;35901;48.694;9.476;2022-12-07T13:04:24;4.50;99.90
50013;DHT22;35901;48.694;9.476;2022-12-07T13:06:51;4.50;99.90
50013;DHT22;35901;48.694;9.476;2022-12-07T13:09:20;4.50;99.90
50013;DHT22;35901;48.694;9.476;2022-12-07T13:11:55;4.40;99.90
50013;DHT22;35901;48.694;9.476;2022-12-07T13:14:57;4.40;99.90
50013;DHT22;35901;48.694;9.476;2022-12-07T13:19:59;4.30;99.90
50013;DHT22;35901;48.694;9.476;2022-12-07T13:25:30;4.30;99.90
50013;DHT22;35901;48.694;9.476;2022-12-07T13:28:20;4.40;99.90
50013;DHT22;35901;48.694;9.476;2022-12-07T13:31:02;4.40;99.90
50013;DHT22;35901;48.694;9.476;2022-12-07T13:33:29;4.40;99.90
50013;DHT22;35901;48.694;9.476;2022-12-07T13:35:56;4.40;99.90
50013;DHT22;35901;48.694;9.476;2022-12-07T13:38:31;4.40;99.90
50013;DHT22;35901;48.694;9.476;2022-12-07T13:41:18;4.40;99.90
50013;DHT22;35901;48.694;9.476;2022-12-07T13:46:11;4.40;99.90
50013;DHT22;35901;48.694;9.476;2022-12-07T13:48:51;4.30;99.90
50013;DHT22;35901;48.694;9.476;2022-12-07T13:53:59;4.30;99.90
50013;DHT22;35901;48.694;9.476;2022-12-07T13:56:32;4.30;99.90
50013;DHT22;35901;48.694;9.476;2022-12-07T13:58:59;4.20;99.90
50013;DHT22;35901;48.694;9.476;2022-12-07T14:01:25;4.20;99.90
50013;DHT22;35901;48.694;9.476;2022-12-07T14:03:51;4.10;99.90
50013;DHT22;35901;48.694;9.476;2022-12-07T14:06:24;4.00;99.90
50013;DHT22;35901;48.694;9.476;2022-12-07T14:11:47;3.90;99.90
50013;DHT22;35901;48.694;9.476;2022-12-07T14:14:18;4.00;99.90
50013;DHT22;35901;48.694;9.476;2022-12-07T14:16:54;3.90;99.90
50013;DHT22;35901;48.694;9.476;2022-12-07T14:19:46;3.90;99.90
50013;DHT22;35901;48.694;9.476;2022-12-07T14:22:38;3.80;99.90
50013;DHT22;35901;48.694;9.476;2022-12-07T14:27:46;3.80;99.90
50013;DHT22;35901;48.694;9.476;2022-12-07T14:30:17;3.80;99.90
50013;DHT22;35901;48.694;9.476;2022-12-07T14:32:43;3.80;99.90
50013;DHT22;35901;48.694;9.476;2022-12-07T14:35:16;3.80;99.90
50013;DHT22;35901;48.694;9.476;2022-12-07T14:37:45;3.80;99.90
50013;DHT22;35901;48.694;9.476;2022-12-07T14:40:17;3.70;99.90
50013;DHT22;35901;48.694;9.476;2022-12-07T14:42:44;3.70;99.90
50013;DHT22;35901;48.694;9.476;2022-12-07T14:45:14;3.70;99.90
50013;DHT22;35901;48.694;9.476;2022-12-07T14:47:40;3.70;99.90
50013;DHT22;35901;48.694;9.476;2022-12-07T14:50:07;3.70;99.90
50013;DHT22;35901;48.694;9.476;2022-12-07T14:52:33;3.60;99.90
50013;DHT22;35901;48.694;9.476;2022-12-07T14:54:59;3.60;99.90
50013;DHT22;35901;48.694;9.476;2022-12-07T14:57:25;3.50;99.90
50013;DHT22;35901;48.694;9.476;2022-12-07T14:59:50;3.50;99.90
50013;DHT22;35901;48.694;9.476;2022-12-07T15:02:16;3.50;99.90
50013;DHT22;35901;48.694;9.476;2022-12-07T15:04:42;3.50;99.90
50013;DHT22;35901;48.694;9.476;2022-12-07T15:07:21;3.40;99.90
50013;DHT22;35901;48.694;9.476;2022-12-07T15:09:48;3.40;99.90
50013;DHT22;35901;48.694;9.476;2022-12-07T15:12:13;3.40;99.90
50013;DHT22;35901;48.694;9.476;2022-12-07T15:14:39;3.40;99.90
50013;DHT22;35901;48.694;9.476;2022-12-07T15:17:05;3.40;99.90
50013;DHT22;35901;48.694;9.476;2022-12-07T15:19:32;3.40;99.90
50013;DHT22;35901;48.694;9.476;2022-12-07T15:21:57;3.30;99.90
50013;DHT22;35901;48.694;9.476;2022-12-07T15:24:25;3.30;99.90
50013;DHT22;35901;48.694;9.476;2022-12-07T15:26:51;3.30;99.90
50013;DHT22;35901;48.694;9.476;2022-12-07T15:29:17;3.30;99.90
50013;DHT22;35901;48.694;9.476;2022-12-07T15:31:43;3.30;99.90
50013;DHT22;35901;48.694;9.476;2022-12-07T15:34:09;3.20;99.90
50013;DHT22;35901;48.694;9.476;2022-12-07T15:36:35;3.20;99.90
50013;DHT22;35901;48.694;9.476;2022-12-07T15:39:01;3.20;99.90
50013;DHT22;35901;48.694;9.476;2022-12-07T15:41:27;3.20;99.90
50013;DHT22;35901;48.694;9.476;2022-12-07T15:43:53;3.20;99.90
50013;DHT22;35901;48.694;9.476;2022-12-07T15:46:40;3.10;99.90
50013;DHT22;35901;48.694;9.476;2022-12-07T15:49:12;3.10;99.90
50013;DHT22;35901;48.694;9.476;2022-12-07T15:51:38;3.00;99.90
50013;DHT22;35901;48.694;9.476;2022-12-07T15:54:04;3.00;99.90
50013;DHT22;35901;48.694;9.476;2022-12-07T15:56:30;2.90;99.90
50013;DHT22;35901;48.694;9.476;2022-12-07T15:58:56;2.80;99.90
50013;DHT22;35901;48.694;9.476;2022-12-07T16:01:22;2.80;99.90
50013;DHT22;35901;48.694;9.476;2022-12-07T16:03:48;2.70;99.90
50013;DHT22;35901;48.694;9.476;2022-12-07T16:06:17;2.70;99.90
50013;DHT22;35901;48.694;9.476;2022-12-07T16:08:46;2.70;99.90
50013;DHT22;35901;48.694;9.476;2022-12-07T16:11:13;2.80;99.90
50013;DHT22;35901;48.694;9.476;2022-12-07T16:13:39;2.80;99.90
50013;DHT22;35901;48.694;9.476;2022-12-07T16:16:07;2.80;99.90
50013;DHT22;35901;48.694;9.476;2022-12-07T16:18:33;2.80;99.90
50013;DHT22;35901;48.694;9.476;2022-12-07T16:20:59;2.80;99.90
50013;DHT22;35901;48.694;9.476;2022-12-07T16:23:26;2.90;99.90
50013;DHT22;35901;48.694;9.476;2022-12-07T16:25:52;2.90;99.90
50013;DHT22;35901;48.694;9.476;2022-12-07T16:28:17;2.80;99.90
50013;DHT22;35901;48.694;9.476;2022-12-07T16:30:46;2.80;99.90
50013;DHT22;35901;48.694;9.476;2022-12-07T16:33:12;2.80;99.90
50013;DHT22;35901;48.694;9.476;2022-12-07T16:35:38;2.80;99.90
50013;DHT22;35901;48.694;9.476;2022-12-07T16:38:07;2.80;99.90
50013;DHT22;35901;48.694;9.476;2022-12-07T16:40:32;2.80;99.90
50013;DHT22;35901;48.694;9.476;2022-12-07T16:42:58;2.80;99.90
50013;DHT22;35901;48.694;9.476;2022-12-07T16:45:24;2.80;99.90
50013;DHT22;35901;48.694;9.476;2022-12-07T16:47:50;2.80;99.90
50013;DHT22;35901;48.694;9.476;2022-12-07T16:50:15;2.80;99.90
50013;DHT22;35901;48.694;9.476;2022-12-07T16:52:41;2.80;99.90
50013;DHT22;35901;48.694;9.476;2022-12-07T16:55:07;2.80;99.90
50013;DHT22;35901;48.694;9.476;2022-12-07T16:57:33;2.80;99.90
50013;DHT22;35901;48.694;9.476;2022-12-07T16:59:59;2.70;99.90
50013;DHT22;35901;48.694;9.476;2022-12-07T17:02:24;2.70;99.90
50013;DHT22;35901;48.694;9.476;2022-12-07T17:04:50;2.70;99.90
50013;DHT22;35901;48.694;9.476;2022-12-07T17:07:16;2.70;99.90
50013;DHT22;35901;48.694;9.476;2022-12-07T17:09:42;2.80;99.90
50013;DHT22;35901;48.694;9.476;2022-12-07T17:12:08;2.80;99.90
50013;DHT22;35901;48.694;9.476;2022-12-07T17:14:33;2.80;99.90
50013;DHT22;35901;48.694;9.476;2022-12-07T17:17:28;2.80;99.90
50013;DHT22;35901;48.694;9.476;2022-12-07T17:19:54;2.80;99.90
50013;DHT22;35901;48.694;9.476;2022-12-07T17:22:19;2.70;99.90
50013;DHT22;35901;48.694;9.476;2022-12-07T17:24:47;2.70;99.90
50013;DHT22;35901;48.694;9.476;2022-12-07T17:27:13;2.70;99.90
50013;DHT22;35901;48.694;9.476;2022-12-07T17:29:38;2.80;99.90
50013;DHT22;35901;48.694;9.476;2022-12-07T17:32:04;2.80;99.90
50013;DHT22;35901;48.694;9.476;2022-12-07T17:34:32;2.80;99.90
50013;DHT22;35901;48.694;9.476;2022-12-07T17:36:58;2.80;99.90
50013;DHT22;35901;48.694;9.476;2022-12-07T17:39:24;2.80;99.90
50013;DHT22;35901;48.694;9.476;2022-12-07T17:41:50;2.80;99.90
50013;DHT22;35901;48.694;9.476;2022-12-07T17:44:34;2.80;99.90
50013;DHT22;35901;48.694;9.476;2022-12-07T17:47:00;2.70;99.90
50013;DHT22;35901;48.694;9.476;2022-12-07T17:49:28;2.70;99.90
50013;DHT22;35901;48.694;9.476;2022-12-07T17:51:54;2.70;99.90
50013;DHT22;35901;48.694;9.476;2022-12-07T17:54:38;2.70;99.90
50013;DHT22;35901;48.694;9.476;2022-12-07T17:57:04;2.60;99.90